createdAt,value
2023-05-19T00:01:19.089Z,97482.31
2023-05-19T00:03:54.044Z,97477.53
2023-05-19T00:06:26.866Z,97475.72
2023-05-19T00:09:01.761Z,97487.09
2023-05-19T00:11:29.812Z,97476.09
2023-05-19T00:13:58.493Z,97476.06
2023-05-19T00:16:27.647Z,97466.34
2023-05-19T00:18:54.400Z,97475.56
2023-05-19T00:21:21.086Z,97461.59
2023-05-19T00:23:47.628Z,97459.28
2023-05-19T00:26:15.923Z,97469.31
2023-05-19T00:28:43.526Z,97462.41
2023-05-19T00:31:10.223Z,97451.22
2023-05-19T00:33:36.725Z,97446.47
2023-05-19T00:36:04.093Z,97444.84
2023-05-19T00:38:32.143Z,97443.34
2023-05-19T00:40:59.928Z,97451.41
2023-05-19T00:43:26.973Z,97444.00
2023-05-19T00:45:53.697Z,97450.22
2023-05-19T00:48:20.912Z,97447.94
2023-05-19T00:50:48.514Z,97447.28
2023-05-19T00:53:17.503Z,97450.72
2023-05-19T00:55:44.226Z,97446.94
2023-05-19T00:58:12.658Z,97443.16
2023-05-19T01:00:39.810Z,97440.53
2023-05-19T01:03:13.368Z,97429.69
2023-05-19T01:05:41.772Z,97425.75
2023-05-19T01:08:09.078Z,97435.28
2023-05-19T01:10:35.665Z,97427.22
2023-05-19T01:13:04.512Z,97423.28
2023-05-19T01:15:37.795Z,97436.41
2023-05-19T01:18:13.857Z,97434.78
2023-05-19T01:20:48.182Z,97419.97
2023-05-19T01:23:23.970Z,97438.72
2023-05-19T01:26:09.303Z,97431.81
2023-05-19T01:29:16.360Z,97432.16
2023-05-19T01:31:47.840Z,97425.84
2023-05-19T01:34:15.301Z,97422.28
2023-05-19T01:36:45.126Z,97425.41
2023-05-19T01:39:12.413Z,97427.22
2023-05-19T01:41:41.696Z,97426.72
2023-05-19T01:44:08.849Z,97423.59
2023-05-19T01:46:38.118Z,97417.69
2023-05-19T01:49:06.473Z,97408.16
2023-05-19T01:51:33.118Z,97417.00
2023-05-19T01:53:59.677Z,97413.75
2023-05-19T01:56:46.746Z,97413.38
2023-05-19T01:59:47.726Z,97413.69
2023-05-19T02:02:43.833Z,97415.53
2023-05-19T02:05:29.578Z,97407.09
2023-05-19T02:08:13.087Z,97397.94
2023-05-19T02:10:43.658Z,97407.31
2023-05-19T02:13:13.634Z,97396.44
2023-05-19T02:15:45.448Z,97395.28
2023-05-19T02:18:12.496Z,97408.75
2023-05-19T02:20:40.140Z,97400.41
2023-05-19T02:23:07.194Z,97400.75
2023-05-19T02:25:33.924Z,97406.31
2023-05-19T02:28:00.480Z,97409.44
2023-05-19T02:30:27.010Z,97399.25
2023-05-19T02:32:54.324Z,97399.88
2023-05-19T02:35:21.450Z,97412.34
2023-05-19T02:37:49.044Z,97409.41
2023-05-19T02:40:15.623Z,97399.41
2023-05-19T02:42:42.139Z,97403.00
2023-05-19T02:45:08.899Z,97405.13
2023-05-19T02:47:36.894Z,97407.41
2023-05-19T02:50:04.844Z,97398.88
2023-05-19T02:52:31.407Z,97402.03
2023-05-19T02:54:57.918Z,97395.75
2023-05-19T02:57:24.489Z,97394.59
2023-05-19T02:59:51.126Z,97384.59
2023-05-19T03:02:17.706Z,97391.94
2023-05-19T03:04:44.264Z,97396.16
2023-05-19T03:07:10.953Z,97400.31
2023-05-19T03:09:37.952Z,97393.88
2023-05-19T03:12:06.538Z,97397.94
2023-05-19T03:14:37.319Z,97400.69
2023-05-19T03:17:04.110Z,97397.75
2023-05-19T03:19:32.517Z,97378.63
2023-05-19T03:21:59.039Z,97396.56
2023-05-19T03:24:25.632Z,97393.72
2023-05-19T03:26:52.280Z,97403.00
2023-05-19T03:29:18.824Z,97394.00
2023-05-19T03:31:45.500Z,97396.09
2023-05-19T03:34:12.002Z,97409.91
2023-05-19T03:36:41.068Z,97408.47
2023-05-19T03:39:07.619Z,97403.97
2023-05-19T03:41:35.159Z,97402.81
2023-05-19T03:44:01.679Z,97407.63
2023-05-19T03:46:28.472Z,97401.84
2023-05-19T03:48:56.145Z,97412.91
2023-05-19T03:51:22.663Z,97416.19
2023-05-19T03:53:49.198Z,97417.19
2023-05-19T03:56:18.108Z,97430.91
2023-05-19T03:58:45.092Z,97426.88
2023-05-19T04:01:11.806Z,97425.09
2023-05-19T04:03:38.479Z,97423.75
2023-05-19T04:06:05.035Z,97425.41
2023-05-19T04:08:32.148Z,97419.38
2023-05-19T04:10:58.734Z,97421.84
2023-05-19T04:13:25.439Z,97428.63
2023-05-19T04:15:52.231Z,97431.13
2023-05-19T04:18:19.430Z,97418.59
2023-05-19T04:20:45.928Z,97425.69
2023-05-19T04:23:14.420Z,97413.88
2023-05-19T04:25:41.890Z,97426.38
2023-05-19T04:28:08.438Z,97420.97
2023-05-19T04:30:35.265Z,97435.78
2023-05-19T04:33:03.556Z,97423.44
2023-05-19T04:35:30.160Z,97441.34
2023-05-19T04:37:56.829Z,97426.56
2023-05-19T04:40:23.906Z,97433.97
2023-05-19T04:42:52.290Z,97428.88
2023-05-19T04:45:18.977Z,97435.28
2023-05-19T04:47:48.125Z,97433.94
2023-05-19T04:50:16.725Z,97428.69
2023-05-19T04:52:45.471Z,97424.41
2023-05-19T04:55:13.025Z,97420.00
2023-05-19T04:57:39.998Z,97426.72
2023-05-19T05:00:12.170Z,97424.56
2023-05-19T05:02:38.792Z,97426.06
2023-05-19T05:05:05.806Z,97425.25
2023-05-19T05:07:32.684Z,97426.22
2023-05-19T05:09:59.711Z,97428.84
2023-05-19T05:12:26.649Z,97436.75
2023-05-19T05:14:53.488Z,97429.03
2023-05-19T05:17:20.555Z,97422.97
2023-05-19T05:19:48.485Z,97425.25
2023-05-19T05:22:15.429Z,97423.09
2023-05-19T05:24:42.193Z,97425.56
2023-05-19T05:27:10.212Z,97417.00
2023-05-19T05:29:36.953Z,97424.25
2023-05-19T05:32:03.648Z,97420.00
2023-05-19T05:34:30.196Z,97422.94
2023-05-19T05:36:56.715Z,97399.44
2023-05-19T05:39:23.200Z,97416.84
2023-05-19T05:41:49.684Z,97414.03
2023-05-19T05:44:16.182Z,97417.66
2023-05-19T05:46:42.955Z,97414.03
2023-05-19T05:49:09.800Z,97412.06
2023-05-19T05:51:36.620Z,97417.69
2023-05-19T05:54:06.182Z,97413.72
2023-05-19T05:56:37.063Z,97418.31
2023-05-19T05:59:03.657Z,97417.63
2023-05-19T06:01:35.448Z,97422.25
2023-05-19T06:04:02.208Z,97424.75
2023-05-19T06:06:28.831Z,97408.38
2023-05-19T06:08:55.367Z,97416.66
2023-05-19T06:11:21.952Z,97413.94
2023-05-19T06:13:48.456Z,97418.66
2023-05-19T06:16:14.991Z,97410.13
2023-05-19T06:18:42.589Z,97412.88
2023-05-19T06:21:10.395Z,97405.03
2023-05-19T06:23:37.087Z,97403.59
2023-05-19T06:26:03.667Z,97405.72
2023-05-19T06:28:30.261Z,97401.75
2023-05-19T06:30:56.828Z,97398.94
2023-05-19T06:33:23.323Z,97414.28
2023-05-19T06:35:49.864Z,97413.72
2023-05-19T06:38:16.433Z,97409.97
2023-05-19T06:40:43.993Z,97412.19
2023-05-19T06:43:10.520Z,97412.06
2023-05-19T06:45:37.098Z,97400.97
2023-05-19T06:48:04.799Z,97398.94
2023-05-19T06:50:31.854Z,97410.56
2023-05-19T06:52:58.598Z,97412.03
2023-05-19T06:55:25.169Z,97411.97
2023-05-19T06:57:51.676Z,97408.34
2023-05-19T07:00:19.946Z,97408.88
2023-05-19T07:02:48.572Z,97406.06
2023-05-19T07:05:15.235Z,97403.25
2023-05-19T07:07:42.445Z,97405.66
2023-05-19T07:10:09.838Z,97398.56
2023-05-19T07:12:36.347Z,97398.41
2023-05-19T07:15:03.100Z,97401.72
2023-05-19T07:17:30.692Z,97400.03
2023-05-19T07:19:57.191Z,97398.31
2023-05-19T07:22:24.221Z,97394.97
2023-05-19T07:24:51.190Z,97394.75
2023-05-19T07:27:17.727Z,97388.97
2023-05-19T07:29:44.319Z,97392.97
2023-05-19T07:32:10.869Z,97376.41
2023-05-19T07:34:37.663Z,97380.94
2023-05-19T07:37:04.309Z,97387.94
2023-05-19T07:39:32.312Z,97377.47
2023-05-19T07:41:59.390Z,97363.56
2023-05-19T07:44:27.119Z,97364.91
2023-05-19T07:46:54.757Z,97374.41
2023-05-19T07:49:21.279Z,97367.00
2023-05-19T07:51:47.818Z,97359.34
2023-05-19T07:54:14.498Z,97362.59
2023-05-19T07:56:41.767Z,97361.44
2023-05-19T07:59:08.317Z,97358.56
2023-05-19T08:01:34.942Z,97356.69
2023-05-19T08:04:01.561Z,97359.69
2023-05-19T08:06:30.051Z,97364.75
2023-05-19T08:08:56.585Z,97360.28
2023-05-19T08:11:24.142Z,97347.75
2023-05-19T08:13:50.964Z,97346.63
2023-05-19T08:16:17.738Z,97342.56
2023-05-19T08:18:44.390Z,97343.81
2023-05-19T08:21:11.015Z,97340.75
2023-05-19T08:23:38.402Z,97335.22
2023-05-19T08:26:05.491Z,97340.75
2023-05-19T08:28:32.199Z,97341.78
2023-05-19T08:30:58.827Z,97335.03
2023-05-19T08:33:25.575Z,97338.56
2023-05-19T08:35:52.102Z,97340.63
2023-05-19T08:38:18.600Z,97340.88
2023-05-19T08:40:47.721Z,97309.19
2023-05-19T08:43:14.612Z,97332.16
2023-05-19T08:45:45.462Z,97335.47
2023-05-19T08:48:13.674Z,97329.41
2023-05-19T08:50:42.630Z,97327.44
2023-05-19T08:53:32.520Z,97311.72
2023-05-19T08:56:36.277Z,97325.63
2023-05-19T08:59:04.157Z,97324.00
2023-05-19T09:01:31.286Z,97317.25
2023-05-19T09:03:58.573Z,97321.34
2023-05-19T09:06:26.292Z,97305.81
2023-05-19T09:08:53.006Z,97315.44
2023-05-19T09:11:19.593Z,97304.59
2023-05-19T09:13:46.130Z,97306.66
2023-05-19T09:16:13.361Z,97300.69
2023-05-19T09:18:40.947Z,97303.88
2023-05-19T09:21:07.992Z,97280.66
2023-05-19T09:23:34.672Z,97284.78
2023-05-19T09:26:07.765Z,97274.78
2023-05-19T09:28:36.684Z,97296.84
2023-05-19T09:31:04.957Z,97287.38
2023-05-19T09:33:36.852Z,97289.69
2023-05-19T09:36:06.464Z,97284.72
2023-05-19T09:38:33.096Z,97274.13
2023-05-19T09:41:01.042Z,97282.59
2023-05-19T09:43:33.386Z,97281.72
2023-05-19T09:46:03.930Z,97283.69
2023-05-19T09:48:30.543Z,97273.63
2023-05-19T09:50:58.128Z,97289.31
2023-05-19T09:53:27.857Z,97290.66
2023-05-19T09:56:00.299Z,97272.59
2023-05-19T09:58:27.119Z,97272.16
2023-05-19T10:00:54.888Z,97272.03
2023-05-19T10:03:25.419Z,97262.88
2023-05-19T10:05:53.240Z,97255.69
2023-05-19T10:08:20.266Z,97253.78
2023-05-19T10:10:47.832Z,97251.44
2023-05-19T10:13:16.537Z,97239.59
2023-05-19T10:15:57.166Z,97241.50
2023-05-19T10:18:26.611Z,97233.50
2023-05-19T10:20:54.290Z,97233.63
2023-05-19T10:23:21.169Z,97229.66
2023-05-19T10:25:49.279Z,97220.03
2023-05-19T10:28:21.337Z,97220.16
2023-05-19T10:30:53.415Z,97224.25
2023-05-19T10:33:24.117Z,97217.69
2023-05-19T10:36:15.882Z,97228.97
2023-05-19T10:38:48.322Z,97225.69
2023-05-19T10:41:32.105Z,97217.09
2023-05-19T10:44:22.992Z,97206.16
2023-05-19T10:46:50.602Z,97216.31
2023-05-19T10:49:22.015Z,97217.09
2023-05-19T10:51:50.104Z,97213.88
2023-05-19T10:54:18.413Z,97210.88
2023-05-19T10:56:47.892Z,97212.25
2023-05-19T10:59:35.946Z,97210.13
2023-05-19T11:02:08.280Z,97199.22
2023-05-19T11:04:51.951Z,97201.78
2023-05-19T11:07:20.497Z,97206.28
2023-05-19T11:09:53.757Z,97207.00
2023-05-19T11:12:25.045Z,97210.84
2023-05-19T11:14:55.509Z,97203.06
2023-05-19T11:17:25.046Z,97200.41
2023-05-19T11:19:56.053Z,97199.47
2023-05-19T11:22:25.034Z,97197.78
2023-05-19T11:24:54.584Z,97185.63
2023-05-19T11:27:38.491Z,97195.06
2023-05-19T11:30:11.732Z,97195.78
2023-05-19T11:32:44.386Z,97194.44
2023-05-19T11:35:11.185Z,97197.34
2023-05-19T11:37:37.860Z,97202.34
2023-05-19T11:40:07.160Z,97196.56
2023-05-19T11:42:34.972Z,97197.34
2023-05-19T11:45:01.645Z,97195.75
2023-05-19T11:47:28.293Z,97190.56
2023-05-19T11:49:56.696Z,97194.50
2023-05-19T11:52:24.411Z,97192.84
2023-05-19T11:54:51.571Z,97188.59
2023-05-19T11:57:30.109Z,97189.56
2023-05-19T11:59:57.256Z,97191.66
2023-05-19T12:02:25.353Z,97189.97
2023-05-19T12:04:52.547Z,97188.78
2023-05-19T12:07:22.837Z,97182.97
2023-05-19T12:09:51.736Z,97184.38
2023-05-19T12:12:20.108Z,97173.97
2023-05-19T12:14:47.889Z,97178.25
2023-05-19T12:17:16.710Z,97170.66
2023-05-19T12:19:44.768Z,97168.81
2023-05-19T12:22:11.758Z,97173.31
2023-05-19T12:24:40.087Z,97180.06
2023-05-19T12:27:28.676Z,97174.31
2023-05-19T12:30:00.096Z,97169.09
2023-05-19T12:32:28.682Z,97184.72
2023-05-19T12:34:58.790Z,97176.00
2023-05-19T12:37:30.092Z,97166.03
2023-05-19T12:39:57.298Z,97170.75
2023-05-19T12:42:26.469Z,97168.00
2023-05-19T12:44:54.769Z,97163.53
2023-05-19T12:47:22.509Z,97165.91
2023-05-19T12:49:59.003Z,97147.84
2023-05-19T12:52:28.981Z,97155.75
2023-05-19T12:55:05.107Z,97158.69
2023-05-19T12:57:37.129Z,97154.25
2023-05-19T13:00:17.628Z,97153.06
2023-05-19T13:03:02.847Z,97155.13
2023-05-19T13:05:31.492Z,97146.41
2023-05-19T13:08:00.179Z,97154.28
2023-05-19T13:10:27.702Z,97147.66
2023-05-19T13:13:00.294Z,97149.53
2023-05-19T13:15:32.118Z,97151.97
2023-05-19T13:17:59.978Z,97148.84
2023-05-19T13:20:28.507Z,97140.59
2023-05-19T13:22:56.095Z,97148.00
2023-05-19T13:25:23.051Z,97141.94
2023-05-19T13:27:49.717Z,97147.22
2023-05-19T13:30:18.391Z,97144.34
2023-05-19T13:32:46.057Z,97153.31
2023-05-19T13:35:13.902Z,97157.41
2023-05-19T13:37:42.023Z,97145.13
2023-05-19T13:40:10.490Z,97159.41
2023-05-19T13:42:38.112Z,97160.53
2023-05-19T13:45:05.107Z,97153.59
2023-05-19T13:47:31.707Z,97156.72
2023-05-19T13:49:58.284Z,97148.13
2023-05-19T13:52:25.292Z,97146.50
2023-05-19T13:54:54.553Z,97143.22
2023-05-19T13:57:24.100Z,97139.69
2023-05-19T14:00:01.801Z,97140.06
2023-05-19T14:02:30.526Z,97154.75
2023-05-19T14:04:57.569Z,97150.53
2023-05-19T14:07:24.300Z,97159.97
2023-05-19T14:09:52.304Z,97148.00
2023-05-19T14:12:19.346Z,97149.78
2023-05-19T14:14:49.001Z,97140.81
2023-05-19T14:17:15.962Z,97145.13
2023-05-19T14:19:42.474Z,97142.78
2023-05-19T14:22:09.047Z,97146.72
2023-05-19T14:24:35.630Z,97146.56
2023-05-19T14:27:02.293Z,97154.53
2023-05-19T14:29:31.067Z,97149.50
2023-05-19T14:31:57.678Z,97144.25
2023-05-19T14:34:24.315Z,97149.25
2023-05-19T14:36:50.962Z,97154.97
2023-05-19T14:39:17.519Z,97154.97
2023-05-19T14:41:44.061Z,97145.16
2023-05-19T14:44:10.659Z,97151.13
2023-05-19T14:46:37.178Z,97144.81
2023-05-19T14:49:04.252Z,97146.13
2023-05-19T14:51:32.866Z,97146.41
2023-05-19T14:54:00.477Z,97157.41
2023-05-19T14:56:28.028Z,97148.88
2023-05-19T14:58:54.572Z,97153.16
2023-05-19T15:01:21.211Z,97145.56
2023-05-19T15:03:47.860Z,97156.03
2023-05-19T15:06:14.545Z,97143.34
2023-05-19T15:08:43.067Z,97133.16
2023-05-19T15:11:09.605Z,97141.50
2023-05-19T15:13:36.184Z,97152.47
2023-05-19T15:16:16.876Z,97155.97
2023-05-19T15:18:44.586Z,97145.69
2023-05-19T15:21:11.134Z,97143.75
2023-05-19T15:23:37.902Z,97151.81
2023-05-19T15:26:05.736Z,97150.69
2023-05-19T15:28:32.308Z,97153.16
2023-05-19T15:30:58.984Z,97149.47
2023-05-19T15:33:25.690Z,97144.13
2023-05-19T15:35:53.348Z,97146.03
2023-05-19T15:38:20.185Z,97137.75
2023-05-19T15:40:46.951Z,97147.31
2023-05-19T15:43:13.958Z,97151.91
2023-05-19T15:45:40.952Z,97145.81
2023-05-19T15:48:07.636Z,97145.88
2023-05-19T15:50:34.677Z,97145.38
2023-05-19T15:53:01.506Z,97144.41
2023-05-19T15:55:28.115Z,97154.63
2023-05-19T15:57:54.595Z,97150.19
2023-05-19T16:00:21.328Z,97134.44
2023-05-19T16:02:47.965Z,97147.81
2023-05-19T16:05:14.594Z,97149.38
2023-05-19T16:07:42.228Z,97146.22
2023-05-19T16:10:09.259Z,97142.13
2023-05-19T16:12:36.756Z,97144.19
2023-05-19T16:15:03.711Z,97138.88
2023-05-19T16:17:30.390Z,97137.22
2023-05-19T16:19:56.968Z,97140.69
2023-05-19T16:22:24.806Z,97146.63
2023-05-19T16:24:52.124Z,97133.41
2023-05-19T16:27:18.834Z,97135.03
2023-05-19T16:29:45.353Z,97137.06
2023-05-19T16:32:12.385Z,97135.97
2023-05-19T16:34:39.078Z,97133.41
2023-05-19T16:37:05.659Z,97143.69
2023-05-19T16:39:32.217Z,97144.59
2023-05-19T16:41:58.690Z,97146.13
2023-05-19T16:44:26.334Z,97149.31
2023-05-19T16:47:01.130Z,97143.44
2023-05-19T16:49:27.605Z,97148.16
2023-05-19T16:51:54.271Z,97145.31
2023-05-19T16:54:21.252Z,97149.69
2023-05-19T16:56:48.340Z,97150.56
2023-05-19T16:59:14.914Z,97150.13
2023-05-19T17:01:45.766Z,97153.19
2023-05-19T17:04:12.280Z,97148.31
2023-05-19T17:06:38.776Z,97149.00
2023-05-19T17:09:05.280Z,97146.56
2023-05-19T17:11:31.846Z,97140.88
2023-05-19T17:13:59.601Z,97150.66
2023-05-19T17:16:26.209Z,97149.44
2023-05-19T17:18:52.890Z,97158.69
2023-05-19T17:21:19.461Z,97151.56
2023-05-19T17:23:46.019Z,97142.44
2023-05-19T17:26:12.527Z,97148.06
2023-05-19T17:28:39.019Z,97142.16
2023-05-19T17:31:12.454Z,97149.66
2023-05-19T17:33:39.264Z,97144.94
2023-05-19T17:36:06.730Z,97144.91
2023-05-19T17:38:34.498Z,97147.56
2023-05-19T17:41:02.147Z,97159.31
2023-05-19T17:43:28.843Z,97153.81
2023-05-19T17:45:55.383Z,97162.41
2023-05-19T17:48:21.884Z,97161.59
2023-05-19T17:50:49.160Z,97155.66
2023-05-19T17:53:16.189Z,97155.09
2023-05-19T17:55:51.830Z,97150.03
2023-05-19T17:58:19.002Z,97147.72
2023-05-19T18:00:45.922Z,97154.56
2023-05-19T18:03:12.849Z,97150.06
2023-05-19T18:05:40.166Z,97151.47
2023-05-19T18:08:09.686Z,97153.75
2023-05-19T18:10:40.872Z,97148.66
2023-05-19T18:13:09.066Z,97148.63
2023-05-19T18:15:36.109Z,97155.34
2023-05-19T18:18:04.285Z,97157.59
2023-05-19T18:20:31.476Z,97154.59
2023-05-19T18:22:58.248Z,97143.56
2023-05-19T18:25:24.892Z,97158.25
2023-05-19T18:27:51.451Z,97156.19
2023-05-19T18:30:18.422Z,97161.91
2023-05-19T18:32:45.935Z,97156.81
2023-05-19T18:35:13.656Z,97149.03
2023-05-19T18:37:41.287Z,97157.00
2023-05-19T18:40:08.285Z,97148.44
2023-05-19T18:42:34.758Z,97163.09
2023-05-19T18:45:01.259Z,97148.00
2023-05-19T18:47:27.706Z,97160.00
2023-05-19T18:49:54.362Z,97156.53
2023-05-19T18:52:21.955Z,97154.50
2023-05-19T18:54:48.804Z,97156.75
2023-05-19T18:57:15.389Z,97157.97
2023-05-19T18:59:41.862Z,97152.06
2023-05-19T19:02:08.375Z,97157.84
2023-05-19T19:04:34.990Z,97158.97
2023-05-19T19:07:01.554Z,97157.06
2023-05-19T19:09:28.096Z,97152.72
2023-05-19T19:11:55.677Z,97169.09
2023-05-19T19:14:24.215Z,97160.09
2023-05-19T19:16:50.884Z,97160.97
2023-05-19T19:19:18.568Z,97165.53
2023-05-19T19:21:45.178Z,97163.44
2023-05-19T19:24:13.533Z,97158.75
2023-05-19T19:26:41.016Z,97163.41
2023-05-19T19:29:07.516Z,97161.25
2023-05-19T19:31:34.024Z,97171.94
2023-05-19T19:34:03.827Z,97174.16
2023-05-19T19:36:32.038Z,97175.63
2023-05-19T19:38:58.875Z,97167.03
2023-05-19T19:41:26.503Z,97168.47
2023-05-19T19:43:53.136Z,97171.31
2023-05-19T19:46:19.731Z,97176.16
2023-05-19T19:48:46.261Z,97173.94
2023-05-19T19:51:12.803Z,97164.84
2023-05-19T19:53:39.296Z,97174.78
2023-05-19T19:56:07.146Z,97167.50
2023-05-19T19:58:33.652Z,97173.22
2023-05-19T20:01:03.335Z,97173.69
2023-05-19T20:03:30.056Z,97164.91
2023-05-19T20:05:57.010Z,97157.59
2023-05-19T20:08:24.804Z,97167.91
2023-05-19T20:10:51.472Z,97174.34
2023-05-19T20:13:19.012Z,97172.69
2023-05-19T20:15:47.207Z,97175.28
2023-05-19T20:18:13.901Z,97170.28
2023-05-19T20:20:41.333Z,97173.00
2023-05-19T20:23:09.923Z,97168.50
2023-05-19T20:25:54.802Z,97171.47
2023-05-19T20:28:29.355Z,97173.47
2023-05-19T20:30:55.927Z,97166.91
2023-05-19T20:33:22.431Z,97166.03
2023-05-19T20:35:48.933Z,97178.16
2023-05-19T20:38:15.432Z,97169.09
2023-05-19T20:40:41.998Z,97170.09
2023-05-19T20:43:08.596Z,97167.66
2023-05-19T20:45:35.352Z,97175.25
2023-05-19T20:48:03.693Z,97165.19
2023-05-19T20:50:30.687Z,97164.94
2023-05-19T20:52:57.285Z,97174.00
2023-05-19T20:55:23.816Z,97168.22
2023-05-19T20:57:50.367Z,97173.13
2023-05-19T21:00:17.205Z,97170.84
2023-05-19T21:02:44.887Z,97176.13
2023-05-19T21:05:11.633Z,97156.75
2023-05-19T21:07:38.250Z,97162.69
2023-05-19T21:10:05.197Z,97166.41
2023-05-19T21:12:34.249Z,97170.09
2023-05-19T21:15:01.700Z,97166.41
2023-05-19T21:17:28.265Z,97162.31
2023-05-19T21:19:58.007Z,97161.53
2023-05-19T21:22:26.129Z,97171.47
2023-05-19T21:24:53.729Z,97160.59
2023-05-19T21:27:20.264Z,97169.66
2023-05-19T21:29:46.977Z,97163.06
2023-05-19T21:32:13.450Z,97168.13
2023-05-19T21:34:40.014Z,97160.69
2023-05-19T21:37:06.616Z,97159.91
2023-05-19T21:39:33.126Z,97161.38
2023-05-19T21:41:59.620Z,97166.63
2023-05-19T21:44:27.153Z,97156.19
2023-05-19T21:46:53.719Z,97156.03
2023-05-19T21:49:21.391Z,97152.34
2023-05-19T21:51:47.927Z,97151.41
2023-05-19T21:54:15.449Z,97149.41
2023-05-19T21:56:41.923Z,97153.34
2023-05-19T21:59:09.179Z,97150.19
2023-05-19T22:01:35.711Z,97141.38
2023-05-19T22:04:02.374Z,97152.66
2023-05-19T22:06:29.002Z,97147.81
2023-05-19T22:08:55.780Z,97152.19
2023-05-19T22:11:22.773Z,97149.97
2023-05-19T22:13:50.092Z,97140.47
2023-05-19T22:16:16.640Z,97146.31
2023-05-19T22:18:43.346Z,97151.09
2023-05-19T22:21:09.882Z,97142.78
2023-05-19T22:23:36.405Z,97141.03
2023-05-19T22:26:02.927Z,97153.22
2023-05-19T22:28:29.447Z,97152.03
2023-05-19T22:30:55.931Z,97144.81
2023-05-19T22:33:22.418Z,97151.28
2023-05-19T22:35:48.953Z,97148.34
2023-05-19T22:38:15.420Z,97147.06
2023-05-19T22:40:42.044Z,97143.41
2023-05-19T22:43:09.543Z,97143.03
2023-05-19T22:45:36.685Z,97137.50
2023-05-19T22:48:03.667Z,97129.31
2023-05-19T22:50:30.424Z,97127.81
2023-05-19T22:52:57.120Z,97134.91
2023-05-19T22:55:23.769Z,97129.56
2023-05-19T22:57:50.404Z,97122.47
2023-05-19T23:00:21.026Z,97119.63
2023-05-19T23:02:47.625Z,97124.66
2023-05-19T23:05:15.151Z,97123.41
2023-05-19T23:07:41.662Z,97132.59
2023-05-19T23:10:09.394Z,97135.25
2023-05-19T23:12:36.037Z,97126.38
2023-05-19T23:15:04.934Z,97113.63
2023-05-19T23:17:31.537Z,97119.38
2023-05-19T23:19:58.018Z,97119.38
2023-05-19T23:22:24.578Z,97115.59
2023-05-19T23:24:52.115Z,97116.22
2023-05-19T23:27:18.646Z,97118.56
2023-05-19T23:29:49.101Z,97110.81
2023-05-19T23:32:16.026Z,97112.59
2023-05-19T23:34:42.646Z,97110.06
2023-05-19T23:37:09.130Z,97107.56
2023-05-19T23:39:35.674Z,97107.50
2023-05-19T23:42:02.129Z,97110.75
2023-05-19T23:44:28.614Z,97109.66
2023-05-19T23:46:55.163Z,97111.34
2023-05-19T23:49:22.022Z,97106.06
2023-05-19T23:51:48.601Z,97109.13
2023-05-19T23:54:15.090Z,97094.47
2023-05-19T23:56:41.613Z,97115.84
2023-05-19T23:59:08.138Z,97107.31
